Latest Weather Observations for Creal Reef

IDQ60801

Issued at 2:52 pm EST Monday 23 September 2019 (issued every 10 minutes, with the page automatically refreshed every 10 minutes)

About weather observations | Map of weather stations | Latest weather observations for QLD | Other Formats
Station Details ID: 200736 Name: CREAL REEF Lat: -20.53 Lon: 150.38 Height: 1.7 m
Data from the previous 72 hours. | See also: Recent months for locations in Queensland
Date/Time
EST
Temp
°C
App
Temp
°C
Dew
Point
°C
Rel
Hum
%
Delta-T
°C
Wind Press
QNH
hPa
Press
MSL
hPa
Rain since
9am
mm
Dir  Spd
km/h
Gust
km/h
Spd
kts
Gust
kts
23/02:30pm 23.1 - - - - SE 22 26 12 14 1019.7 1019.6 -
23/02:00pm 23.1 - - - - SE 22 24 12 13 1020.0 1019.9 -
23/01:30pm 23.4 - - - - SE 22 26 12 14 1020.3 1020.2 -
23/01:00pm 23.1 - - - - SE 22 24 12 13 1020.6 1020.5 -
23/12:30pm 23.2 - - - - SE 22 26 12 14 1020.9 1020.8 -
23/12:00pm 23.3 - - - - SE 22 26 12 14 1021.4 1021.3 -
23/11:30am 23.1 - - - - ESE 22 24 12 13 1022.0 1021.9 -
23/11:00am 23.5 - - - - ESE 22 26 12 14 1022.3 1022.2 -
23/10:30am 23.1 - - - - SE 24 26 13 14 1022.6 1022.5 -
23/10:00am 23.3 - - - - ESE 26 28 14 15 1022.8 1022.7 -
23/09:30am 23.2 - - - - ESE 26 32 14 17 1022.9 1022.8 -
23/09:00am 22.9 - - - - SE 28 32 15 17 1023.1 1023.0 -
23/08:30am 22.8 - - - - SE 28 32 15 17 1023.0 1022.9 -
23/08:00am 22.8 - - - - SE 28 32 15 17 1022.9 1022.8 -
23/07:30am 22.9 - - - - SE 28 32 15 17 1022.8 1022.7 -
23/07:00am 23.0 - - - - ESE 26 28 14 15 1022.7 1022.6 -
23/06:30am 22.8 - - - - ESE 26 30 14 16 1022.4 1022.3 -
23/06:00am 22.8 - - - - ESE 26 30 14 16 1022.5 1022.4 -
23/05:30am 22.6 - - - - ESE 20 28 11 15 1022.2 1022.1 -
23/05:00am 22.4 - - - - SE 19 24 10 13 1021.9 1021.8 -
23/04:30am 22.7 - - - - SSE 17 20 9 11 1021.8 1021.7 -
23/04:00am 22.6 - - - - SE 19 20 10 11 1021.8 1021.7 -
23/03:30am 22.7 - - - - SSE 20 24 11 13 1021.7 1021.6 -
23/03:00am 22.4 - - - - SSE 17 20 9 11 1021.8 1021.7 -
23/02:30am 22.5 - - - - SE 17 20 9 11 1022.0 1021.9 -
23/02:00am 22.6 - - - - SE 20 24 11 13 1022.2 1022.1 -
23/01:30am 22.6 - - - - SE 20 22 11 12 1022.5 1022.4 -
23/01:00am 22.5 - - - - SE 22 24 12 13 1022.7 1022.6 -
23/12:30am 22.8 - - - - SE 22 28 12 15 1023.1 1023.0 -
23/12:00am 22.6 - - - - SE 26 30 14 16 1023.2 1023.1 -
 
Date/Time
EST
Temp
°C
App
Temp
°C
Dew
Point
°C
Rel
Hum
%
Delta-T
°C
Wind Press
QNH
hPa
Press
MSL
hPa
Rain since
9am
mm
Dir  Spd
km/h
Gust
km/h
Spd
kts
Gust
kts
22/11:30pm 22.7 - - - - ESE 24 28 13 15 1023.1 1023.0 -
22/11:00pm 22.6 - - - - SE 28 32 15 17 1023.2 1023.1 -
22/10:30pm 22.7 - - - - SE 26 30 14 16 1023.1 1023.0 -
22/10:00pm 22.6 - - - - SE 26 30 14 16 1023.1 1023.0 -
22/09:30pm 22.7 - - - - SE 26 30 14 16 1022.9 1022.8 -
22/09:00pm 22.8 - - - - SE 26 30 14 16 1022.9 1022.8 -
22/08:30pm 22.8 - - - - SE 28 32 15 17 1022.7 1022.6 -
22/08:00pm 22.9 - - - - SE 26 32 14 17 1022.4 1022.3 -
22/07:30pm 23.0 - - - - SE 24 28 13 15 1022.3 1022.2 -
22/07:00pm 23.0 - - - - SE 26 30 14 16 1022.0 1021.9 -
22/06:30pm 22.8 - - - - SE 28 32 15 17 1021.7 1021.6 -
22/06:00pm 22.9 - - - - SE 30 33 16 18 1021.6 1021.5 -
22/05:30pm 23.1 - - - - ESE 30 33 16 18 1021.4 1021.3 -
22/05:00pm 23.2 - - - - ESE 32 35 17 19 1021.1 1021.0 -
22/04:30pm 23.3 - - - - ESE 28 33 15 18 1020.8 1020.7 -
22/04:00pm 23.3 - - - - ESE 28 32 15 17 1020.7 1020.6 -
22/03:30pm 23.2 - - - - ESE 24 28 13 15 1020.6 1020.5 -
22/03:00pm 23.1 - - - - ESE 28 32 15 17 1020.8 1020.7 -
22/02:30pm 22.9 - - - - ESE 28 33 15 18 1020.8 1020.7 -
22/02:00pm 22.8 - - - - ESE 28 30 15 16 1020.9 1020.8 -
22/01:30pm 23.1 - - - - ESE 35 44 19 24 1021.0 1020.9 -
22/01:00pm 22.2 - - - - ESE 33 39 18 21 1021.3 1021.2 -
22/12:30pm 22.9 - - - - ESE 32 37 17 20 1021.4 1021.3 -
22/12:00pm 23.3 - - - - ESE 32 35 17 19 1021.7 1021.6 -
22/11:30am 23.2 - - - - SE 28 32 15 17 1022.1 1022.0 -
22/11:00am 23.4 - - - - ESE 26 28 14 15 1022.3 1022.2 -
22/10:30am 23.5 - - - - SE 28 32 15 17 1022.3 1022.2 -
22/10:00am 23.5 - - - - SE 26 28 14 15 1022.3 1022.2 -
22/09:30am 22.9 - - - - SE 28 32 15 17 1022.4 1022.3 -
22/09:00am 23.1 - - - - ESE 20 22 11 12 1022.6 1022.5 -
22/08:30am 23.3 - - - - E 20 22 11 12 1022.5 1022.4 -
22/08:00am 23.3 - - - - E 26 30 14 16 1022.3 1022.2 -
22/07:30am 22.9 - - - - E 24 28 13 15 1022.3 1022.2 -
22/07:00am 22.4 - - - - E 32 35 17 19 1022.0 1021.9 -
22/06:30am 23.2 - - - - E 22 26 12 14 1021.6 1021.5 -
22/06:00am 22.9 - - - - E 24 30 13 16 1021.1 1021.0 -
22/05:30am 22.6 - - - - ESE 20 26 11 14 1020.9 1020.8 -
22/05:00am 22.7 - - - - SE 17 20 9 11 1020.8 1020.7 -
22/04:30am 22.8 - - - - SE 19 20 10 11 1020.5 1020.4 -
22/04:00am 22.6 - - - - ESE 20 22 11 12 1020.2 1020.1 -
22/03:30am 22.4 - - - - SE 22 24 12 13 1019.8 1019.7 -
22/03:00am 22.6 - - - - SE 26 30 14 16 1019.8 1019.7 -
22/02:30am 22.7 - - - - SE 24 30 13 16 1019.8 1019.7 -
22/02:00am 22.6 - - - - ESE 26 30 14 16 1020.0 1019.9 -
22/01:30am 22.6 - - - - SE 28 32 15 17 1020.2 1020.1 -
22/01:00am 22.7 - - - - ESE 24 28 13 15 1020.5 1020.4 -
22/12:30am 22.8 - - - - SE 26 30 14 16 1020.8 1020.7 -
22/12:00am 22.8 - - - - ESE 26 30 14 16 1020.9 1020.8 -
 
Date/Time
EST
Temp
°C
App
Temp
°C
Dew
Point
°C
Rel
Hum
%
Delta-T
°C
Wind Press
QNH
hPa
Press
MSL
hPa
Rain since
9am
mm
Dir  Spd
km/h
Gust
km/h
Spd
kts
Gust
kts
21/11:30pm 22.8 - - - - ESE 26 32 14 17 1021.0 1020.9 -
21/11:00pm 22.8 - - - - ESE 32 35 17 19 1021.1 1021.0 -
21/10:30pm 22.7 - - - - ESE 30 35 16 19 1021.2 1021.1 -
21/10:00pm 22.7 - - - - ESE 30 33 16 18 1021.2 1021.1 -
21/09:30pm 22.7 - - - - SE 30 35 16 19 1021.2 1021.1 -
21/09:00pm 22.8 - - - - ESE 32 35 17 19 1021.2 1021.1 -
21/08:30pm 22.9 - - - - SE 32 35 17 19 1020.9 1020.8 -
21/08:00pm 22.8 - - - - SE 30 35 16 19 1020.9 1020.8 -
21/07:30pm 22.9 - - - - SE 32 37 17 20 1020.6 1020.5 -
21/07:00pm 23.0 - - - - SE 32 37 17 20 1020.2 1020.1 -
21/06:30pm 23.0 - - - - SE 32 35 17 19 1020.1 1020.0 -
21/06:00pm 23.1 - - - - SE 32 39 17 21 1019.8 1019.7 -
21/05:30pm 23.2 - - - - ESE 32 35 17 19 1019.6 1019.5 -
21/05:00pm 23.1 - - - - ESE 30 33 16 18 1019.4 1019.3 -
21/04:30pm 23.3 - - - - ESE 32 37 17 20 1019.0 1018.9 -
21/04:00pm 23.3 - - - - ESE 30 33 16 18 1019.0 1018.9 -
21/03:30pm 23.3 - - - - SE 30 35 16 19 1019.0 1018.9 -
21/03:00pm 23.1 - - - - ESE 30 35 16 19 1019.1 1019.0 -
21/02:30pm 23.1 - - - - ESE 26 32 14 17 1019.3 1019.2 -
21/02:00pm 23.1 - - - - ESE 30 33 16 18 1019.6 1019.5 -
21/01:30pm 23.1 - - - - ESE 30 33 16 18 1019.9 1019.8 -
21/01:00pm 23.1 - - - - ESE 30 33 16 18 1020.2 1020.1 -
21/12:30pm 23.4 - - - - ESE 26 30 14 16 1020.6 1020.5 -
21/12:00pm 23.3 - - - - ESE 26 30 14 16 1021.0 1020.9 -
21/11:30am 23.4 - - - - ESE 26 33 14 18 1021.5 1021.4 -
21/11:00am 23.5 - - - - ESE 24 32 13 17 1021.8 1021.7 -
21/10:30am 23.4 - - - - ESE 28 32 15 17 1021.9 1021.8 -
21/10:00am 23.5 - - - - ESE 28 32 15 17 1022.0 1021.9 -
21/09:30am 23.3 - - - - ESE 28 32 15 17 1022.0 1021.9 -
21/09:00am 23.3 - - - - ESE 30 33 16 18 1022.0 1021.9 -
21/08:30am 23.2 - - - - ESE 30 35 16 19 1021.8 1021.7 -
21/08:00am 23.3 - - - - ESE 30 33 16 18 1021.6 1021.5 -
21/07:30am 23.2 - - - - ESE 32 37 17 20 1021.3 1021.2 -
21/07:00am 23.1 - - - - ESE 33 37 18 20 1021.0 1020.9 -
21/06:30am 22.9 - - - - ESE 32 35 17 19 1020.7 1020.6 -
21/06:00am 22.9 - - - - ESE 32 37 17 20 1020.7 1020.6 -
21/05:30am 23.0 - - - - ESE 30 35 16 19 1020.4 1020.3 -
21/05:00am 23.0 - - - - ESE 32 35 17 19 1020.2 1020.1 -
21/04:30am 22.9 - - - - ESE 28 33 15 18 1020.1 1020.0 -
21/04:00am 22.8 - - - - ESE 26 28 14 15 1019.8 1019.7 -
21/03:30am 22.6 - - - - ESE 26 30 14 16 1019.8 1019.7 -
21/03:00am 23.0 - - - - E 32 37 17 20 1019.6 1019.5 -
21/02:30am 23.1 - - - - ESE 35 41 19 22 1019.5 1019.4 -
21/02:00am 22.9 - - - - ESE 39 46 21 25 1019.7 1019.6 -
21/01:30am 23.0 - - - - ESE 41 48 22 26 1019.9 1019.8 -
21/01:00am 22.9 - - - - ESE 37 44 20 24 1020.2 1020.1 -
21/12:30am 23.1 - - - - ESE 41 48 22 26 1020.1 1020.0 -
21/12:00am 22.9 - - - - ESE 39 44 21 24 1020.3 1020.2 -
 
Date/Time
EST
Temp
°C
App
Temp
°C
Dew
Point
°C
Rel
Hum
%
Delta-T
°C
Wind Press
QNH
hPa
Press
MSL
hPa
Rain since
9am
mm
Dir  Spd
km/h
Gust
km/h
Spd
kts
Gust
kts
20/11:30pm 22.8 - - - - SE 33 39 18 21 1020.5 1020.4 -
20/11:00pm 22.5 - - - - SE 32 39 17 21 1020.7 1020.6 -
20/10:30pm 22.6 - - - - SE 33 39 18 21 1020.7 1020.6 -
20/10:00pm 22.6 - - - - SE 33 39 18 21 1020.7 1020.6 -
20/09:30pm 22.5 - - - - SE 32 37 17 20 1020.7 1020.6 -
20/09:00pm 22.8 - - - - SE 35 39 19 21 1020.4 1020.3 -
20/08:30pm 22.8 - - - - ESE 32 37 17 20 1020.4 1020.3 -
20/08:00pm 22.7 - - - - ESE 33 37 18 20 1020.0 1019.9 -
20/07:30pm 22.8 - - - - ESE 33 39 18 21 1019.6 1019.5 -
20/07:00pm 22.7 - - - - ESE 32 37 17 20 1019.3 1019.2 -
20/06:30pm 22.9 - - - - SE 33 41 18 22 1019.0 1018.9 -
20/06:00pm 22.9 - - - - SE 32 37 17 20 1018.7 1018.6 -
20/05:30pm 23.2 - - - - ESE 32 39 17 21 1018.5 1018.4 -
20/05:00pm 23.2 - - - - ESE 30 35 16 19 1018.5 1018.4 -
20/04:30pm 23.1 - - - - ESE 32 37 17 20 1018.3 1018.2 -
20/04:00pm 22.7 - - - - SE 30 33 16 18 1018.4 1018.3 -
20/03:30pm 22.6 - - - - SSE 32 35 17 19 1018.5 1018.4 -
20/03:00pm 22.5 - - - - SE 33 39 18 21 1018.6 1018.5 -

Other formats

Comma delimited format used in spreadsheet applications
http://www.bom.gov.au/fwo/IDQ60801/IDQ60801.94371.axf

JavaScript Object Notation format (JSON) in row-major order
http://www.bom.gov.au/fwo/IDQ60801/IDQ60801.94371.json

Data quality

Most of these data are generated automatically and are frequently updated. Quality checks on data are not normally performed. It is possible for incorrect values to appear. Refer to information at About Latest Weather Observations and please check the disclaimer before using these data.